sensor_id;sensor_type;location;lat;lon;timestamp;P1;durP1;ratioP1;P2;durP2;ratioP2
57726;SDS011;43568;43.180;-0.028;2022-08-19T00:01:45;1.80;;;1.80;;
57726;SDS011;43568;43.180;-0.028;2022-08-19T00:04:12;2.28;;;2.17;;
57726;SDS011;43568;43.180;-0.028;2022-08-19T00:06:39;1.92;;;1.92;;
57726;SDS011;43568;43.180;-0.028;2022-08-19T00:09:06;1.88;;;1.88;;
57726;SDS011;43568;43.180;-0.028;2022-08-19T00:11:33;2.30;;;2.20;;
57726;SDS011;43568;43.180;-0.028;2022-08-19T00:14:01;2.25;;;2.15;;
57726;SDS011;43568;43.180;-0.028;2022-08-19T00:16:27;2.45;;;2.28;;
57726;SDS011;43568;43.180;-0.028;2022-08-19T00:18:53;1.92;;;1.92;;
57726;SDS011;43568;43.180;-0.028;2022-08-19T00:21:23;1.80;;;1.80;;
57726;SDS011;43568;43.180;-0.028;2022-08-19T00:23:51;2.00;;;2.00;;
57726;SDS011;43568;43.180;-0.028;2022-08-19T00:26:17;1.67;;;1.67;;
57726;SDS011;43568;43.180;-0.028;2022-08-19T00:28:43;1.70;;;1.70;;
57726;SDS011;43568;43.180;-0.028;2022-08-19T00:31:09;2.00;;;2.00;;
57726;SDS011;43568;43.180;-0.028;2022-08-19T00:33:35;2.58;;;2.47;;
57726;SDS011;43568;43.180;-0.028;2022-08-19T00:36:03;2.00;;;2.00;;
57726;SDS011;43568;43.180;-0.028;2022-08-19T00:38:31;1.80;;;1.80;;
57726;SDS011;43568;43.180;-0.028;2022-08-19T00:40:57;2.05;;;2.05;;
57726;SDS011;43568;43.180;-0.028;2022-08-19T00:43:25;1.90;;;1.90;;
57726;SDS011;43568;43.180;-0.028;2022-08-19T00:45:51;1.80;;;1.80;;
57726;SDS011;43568;43.180;-0.028;2022-08-19T00:48:18;2.13;;;2.03;;
57726;SDS011;43568;43.180;-0.028;2022-08-19T00:50:44;2.00;;;1.90;;
57726;SDS011;43568;43.180;-0.028;2022-08-19T00:53:11;2.08;;;2.00;;
57726;SDS011;43568;43.180;-0.028;2022-08-19T00:55:40;3.63;;;2.42;;
57726;SDS011;43568;43.180;-0.028;2022-08-19T00:58:09;2.00;;;2.00;;
57726;SDS011;43568;43.180;-0.028;2022-08-19T01:00:36;1.85;;;1.85;;
57726;SDS011;43568;43.180;-0.028;2022-08-19T01:03:07;2.08;;;2.08;;
57726;SDS011;43568;43.180;-0.028;2022-08-19T01:05:33;2.10;;;2.08;;
57726;SDS011;43568;43.180;-0.028;2022-08-19T01:08:00;1.83;;;1.83;;
57726;SDS011;43568;43.180;-0.028;2022-08-19T01:10:29;1.80;;;1.80;;
57726;SDS011;43568;43.180;-0.028;2022-08-19T01:12:56;1.60;;;1.60;;
57726;SDS011;43568;43.180;-0.028;2022-08-19T01:17:49;1.65;;;1.65;;
57726;SDS011;43568;43.180;-0.028;2022-08-19T01:20:17;1.98;;;1.98;;
57726;SDS011;43568;43.180;-0.028;2022-08-19T01:22:48;1.80;;;1.80;;
57726;SDS011;43568;43.180;-0.028;2022-08-19T01:25:16;1.77;;;1.75;;
57726;SDS011;43568;43.180;-0.028;2022-08-19T01:27:43;1.70;;;1.70;;
57726;SDS011;43568;43.180;-0.028;2022-08-19T01:30:12;1.85;;;1.75;;
57726;SDS011;43568;43.180;-0.028;2022-08-19T01:32:38;1.90;;;1.90;;
57726;SDS011;43568;43.180;-0.028;2022-08-19T01:35:04;1.80;;;1.80;;
57726;SDS011;43568;43.180;-0.028;2022-08-19T01:37:41;1.60;;;1.60;;
57726;SDS011;43568;43.180;-0.028;2022-08-19T01:40:07;1.85;;;1.85;;
57726;SDS011;43568;43.180;-0.028;2022-08-19T01:42:33;1.85;;;1.85;;
57726;SDS011;43568;43.180;-0.028;2022-08-19T01:45:00;1.73;;;1.73;;
57726;SDS011;43568;43.180;-0.028;2022-08-19T01:47:26;1.67;;;1.67;;
57726;SDS011;43568;43.180;-0.028;2022-08-19T01:49:52;2.28;;;2.17;;
57726;SDS011;43568;43.180;-0.028;2022-08-19T01:52:19;1.75;;;1.75;;
57726;SDS011;43568;43.180;-0.028;2022-08-19T01:54:45;2.22;;;2.13;;
57726;SDS011;43568;43.180;-0.028;2022-08-19T01:57:12;1.60;;;1.60;;
57726;SDS011;43568;43.180;-0.028;2022-08-19T01:59:38;4.35;;;2.55;;
57726;SDS011;43568;43.180;-0.028;2022-08-19T02:02:05;1.90;;;1.80;;
57726;SDS011;43568;43.180;-0.028;2022-08-19T02:04:33;1.70;;;1.70;;
57726;SDS011;43568;43.180;-0.028;2022-08-19T02:07:00;1.60;;;1.60;;
57726;SDS011;43568;43.180;-0.028;2022-08-19T02:09:26;1.80;;;1.80;;
57726;SDS011;43568;43.180;-0.028;2022-08-19T02:11:52;1.80;;;1.80;;
57726;SDS011;43568;43.180;-0.028;2022-08-19T02:14:18;1.92;;;1.92;;
57726;SDS011;43568;43.180;-0.028;2022-08-19T02:16:44;1.90;;;1.90;;
57726;SDS011;43568;43.180;-0.028;2022-08-19T02:19:10;1.67;;;1.67;;
57726;SDS011;43568;43.180;-0.028;2022-08-19T02:21:36;1.70;;;1.70;;
57726;SDS011;43568;43.180;-0.028;2022-08-19T02:24:02;2.60;;;2.50;;
57726;SDS011;43568;43.180;-0.028;2022-08-19T02:26:29;1.90;;;1.90;;
57726;SDS011;43568;43.180;-0.028;2022-08-19T02:28:55;1.80;;;1.80;;
57726;SDS011;43568;43.180;-0.028;2022-08-19T02:31:22;1.92;;;1.92;;
57726;SDS011;43568;43.180;-0.028;2022-08-19T02:33:48;2.05;;;1.95;;
57726;SDS011;43568;43.180;-0.028;2022-08-19T02:36:15;2.20;;;2.10;;
57726;SDS011;43568;43.180;-0.028;2022-08-19T02:38:42;1.73;;;1.73;;
57726;SDS011;43568;43.180;-0.028;2022-08-19T02:41:14;2.28;;;2.17;;
57726;SDS011;43568;43.180;-0.028;2022-08-19T02:43:40;1.90;;;1.90;;
57726;SDS011;43568;43.180;-0.028;2022-08-19T02:48:38;2.13;;;2.03;;
57726;SDS011;43568;43.180;-0.028;2022-08-19T02:51:05;2.75;;;2.65;;
57726;SDS011;43568;43.180;-0.028;2022-08-19T02:53:31;2.00;;;2.00;;
57726;SDS011;43568;43.180;-0.028;2022-08-19T02:55:57;1.92;;;1.92;;
57726;SDS011;43568;43.180;-0.028;2022-08-19T02:58:23;1.88;;;1.88;;
57726;SDS011;43568;43.180;-0.028;2022-08-19T03:00:53;2.33;;;2.22;;
57726;SDS011;43568;43.180;-0.028;2022-08-19T03:03:19;1.70;;;1.70;;
57726;SDS011;43568;43.180;-0.028;2022-08-19T03:05:46;1.90;;;1.90;;
57726;SDS011;43568;43.180;-0.028;2022-08-19T03:08:13;1.90;;;1.90;;
57726;SDS011;43568;43.180;-0.028;2022-08-19T03:10:40;2.17;;;2.17;;
57726;SDS011;43568;43.180;-0.028;2022-08-19T03:13:08;1.85;;;1.85;;
57726;SDS011;43568;43.180;-0.028;2022-08-19T03:15:38;1.77;;;1.77;;
57726;SDS011;43568;43.180;-0.028;2022-08-19T03:18:04;1.80;;;1.80;;
57726;SDS011;43568;43.180;-0.028;2022-08-19T03:20:30;1.73;;;1.73;;
57726;SDS011;43568;43.180;-0.028;2022-08-19T03:22:56;1.80;;;1.80;;
57726;SDS011;43568;43.180;-0.028;2022-08-19T03:25:22;2.35;;;2.25;;
57726;SDS011;43568;43.180;-0.028;2022-08-19T03:27:48;1.65;;;1.65;;
57726;SDS011;43568;43.180;-0.028;2022-08-19T03:30:14;2.42;;;2.33;;
57726;SDS011;43568;43.180;-0.028;2022-08-19T03:32:40;1.75;;;1.75;;
57726;SDS011;43568;43.180;-0.028;2022-08-19T03:35:06;1.85;;;1.83;;
57726;SDS011;43568;43.180;-0.028;2022-08-19T03:37:32;1.98;;;1.88;;
57726;SDS011;43568;43.180;-0.028;2022-08-19T03:39:58;1.85;;;1.85;;
57726;SDS011;43568;43.180;-0.028;2022-08-19T03:42:24;2.03;;;2.03;;
57726;SDS011;43568;43.180;-0.028;2022-08-19T03:44:51;1.75;;;1.75;;
57726;SDS011;43568;43.180;-0.028;2022-08-19T03:47:18;1.80;;;1.80;;
57726;SDS011;43568;43.180;-0.028;2022-08-19T03:49:44;1.80;;;1.80;;
57726;SDS011;43568;43.180;-0.028;2022-08-19T03:52:10;3.28;;;2.22;;
57726;SDS011;43568;43.180;-0.028;2022-08-19T03:54:36;2.28;;;2.17;;
57726;SDS011;43568;43.180;-0.028;2022-08-19T03:57:03;1.80;;;1.80;;
57726;SDS011;43568;43.180;-0.028;2022-08-19T03:59:31;1.90;;;1.90;;
57726;SDS011;43568;43.180;-0.028;2022-08-19T04:01:58;2.00;;;2.00;;
57726;SDS011;43568;43.180;-0.028;2022-08-19T04:04:24;2.00;;;2.00;;
57726;SDS011;43568;43.180;-0.028;2022-08-19T04:06:50;2.13;;;2.13;;
57726;SDS011;43568;43.180;-0.028;2022-08-19T04:09:17;2.10;;;2.00;;
57726;SDS011;43568;43.180;-0.028;2022-08-19T04:11:46;1.90;;;1.90;;
57726;SDS011;43568;43.180;-0.028;2022-08-19T04:14:14;1.90;;;1.90;;
57726;SDS011;43568;43.180;-0.028;2022-08-19T04:16:40;2.00;;;2.00;;
57726;SDS011;43568;43.180;-0.028;2022-08-19T04:19:07;1.75;;;1.75;;
57726;SDS011;43568;43.180;-0.028;2022-08-19T04:21:33;1.98;;;1.98;;
57726;SDS011;43568;43.180;-0.028;2022-08-19T04:23:59;1.88;;;1.88;;
57726;SDS011;43568;43.180;-0.028;2022-08-19T04:26:27;1.98;;;1.90;;
57726;SDS011;43568;43.180;-0.028;2022-08-19T04:31:27;1.80;;;1.80;;
57726;SDS011;43568;43.180;-0.028;2022-08-19T04:33:57;1.80;;;1.80;;
57726;SDS011;43568;43.180;-0.028;2022-08-19T04:36:25;1.90;;;1.90;;
57726;SDS011;43568;43.180;-0.028;2022-08-19T04:38:55;1.80;;;1.80;;
57726;SDS011;43568;43.180;-0.028;2022-08-19T04:41:22;2.00;;;2.00;;
57726;SDS011;43568;43.180;-0.028;2022-08-19T04:44:06;1.80;;;1.80;;
57726;SDS011;43568;43.180;-0.028;2022-08-19T04:46:33;1.92;;;1.90;;
57726;SDS011;43568;43.180;-0.028;2022-08-19T04:48:59;1.88;;;1.88;;
57726;SDS011;43568;43.180;-0.028;2022-08-19T04:51:26;8.52;;;2.25;;
57726;SDS011;43568;43.180;-0.028;2022-08-19T04:53:52;1.80;;;1.80;;
57726;SDS011;43568;43.180;-0.028;2022-08-19T04:56:19;1.98;;;1.88;;
57726;SDS011;43568;43.180;-0.028;2022-08-19T04:58:46;2.00;;;2.00;;
57726;SDS011;43568;43.180;-0.028;2022-08-19T05:01:19;1.70;;;1.70;;
57726;SDS011;43568;43.180;-0.028;2022-08-19T05:03:46;16.13;;;2.17;;
57726;SDS011;43568;43.180;-0.028;2022-08-19T05:06:14;1.80;;;1.80;;
57726;SDS011;43568;43.180;-0.028;2022-08-19T05:08:41;2.00;;;2.00;;
57726;SDS011;43568;43.180;-0.028;2022-08-19T05:11:24;1.90;;;1.90;;
57726;SDS011;43568;43.180;-0.028;2022-08-19T05:13:51;2.47;;;2.38;;
57726;SDS011;43568;43.180;-0.028;2022-08-19T05:16:18;1.90;;;1.90;;
57726;SDS011;43568;43.180;-0.028;2022-08-19T05:18:44;2.23;;;2.13;;
57726;SDS011;43568;43.180;-0.028;2022-08-19T05:21:29;2.25;;;2.17;;
57726;SDS011;43568;43.180;-0.028;2022-08-19T05:24:14;2.10;;;2.00;;
57726;SDS011;43568;43.180;-0.028;2022-08-19T05:26:42;2.42;;;2.33;;
57726;SDS011;43568;43.180;-0.028;2022-08-19T05:29:11;1.85;;;1.85;;
57726;SDS011;43568;43.180;-0.028;2022-08-19T05:31:37;1.83;;;1.80;;
57726;SDS011;43568;43.180;-0.028;2022-08-19T05:34:04;2.00;;;2.00;;
57726;SDS011;43568;43.180;-0.028;2022-08-19T05:36:33;1.73;;;1.73;;
57726;SDS011;43568;43.180;-0.028;2022-08-19T05:38:59;1.83;;;1.83;;
57726;SDS011;43568;43.180;-0.028;2022-08-19T05:41:25;2.30;;;2.20;;
57726;SDS011;43568;43.180;-0.028;2022-08-19T05:43:58;1.80;;;1.80;;
57726;SDS011;43568;43.180;-0.028;2022-08-19T05:46:26;1.80;;;1.80;;
57726;SDS011;43568;43.180;-0.028;2022-08-19T05:48:52;1.70;;;1.70;;
57726;SDS011;43568;43.180;-0.028;2022-08-19T05:51:21;1.60;;;1.60;;
57726;SDS011;43568;43.180;-0.028;2022-08-19T05:53:47;1.60;;;1.60;;
57726;SDS011;43568;43.180;-0.028;2022-08-19T05:56:14;1.80;;;1.80;;
57726;SDS011;43568;43.180;-0.028;2022-08-19T05:58:41;1.80;;;1.80;;
57726;SDS011;43568;43.180;-0.028;2022-08-19T06:01:11;2.10;;;2.00;;
57726;SDS011;43568;43.180;-0.028;2022-08-19T06:03:38;1.92;;;1.92;;
57726;SDS011;43568;43.180;-0.028;2022-08-19T06:06:04;1.83;;;1.83;;
57726;SDS011;43568;43.180;-0.028;2022-08-19T06:08:31;2.40;;;2.28;;
57726;SDS011;43568;43.180;-0.028;2022-08-19T06:10:58;2.37;;;2.27;;
57726;SDS011;43568;43.180;-0.028;2022-08-19T06:13:37;1.95;;;1.95;;
57726;SDS011;43568;43.180;-0.028;2022-08-19T06:16:03;2.05;;;1.95;;
57726;SDS011;43568;43.180;-0.028;2022-08-19T06:18:29;1.98;;;1.98;;
57726;SDS011;43568;43.180;-0.028;2022-08-19T06:20:55;1.90;;;1.80;;
57726;SDS011;43568;43.180;-0.028;2022-08-19T06:23:22;2.00;;;1.90;;
57726;SDS011;43568;43.180;-0.028;2022-08-19T06:25:48;2.00;;;2.00;;
57726;SDS011;43568;43.180;-0.028;2022-08-19T06:28:14;1.67;;;1.67;;
57726;SDS011;43568;43.180;-0.028;2022-08-19T06:30:40;2.20;;;2.10;;
57726;SDS011;43568;43.180;-0.028;2022-08-19T06:33:06;2.58;;;2.28;;
57726;SDS011;43568;43.180;-0.028;2022-08-19T06:35:32;2.20;;;2.10;;
57726;SDS011;43568;43.180;-0.028;2022-08-19T06:37:58;2.67;;;2.47;;
57726;SDS011;43568;43.180;-0.028;2022-08-19T06:40:24;1.90;;;1.90;;
57726;SDS011;43568;43.180;-0.028;2022-08-19T06:42:52;1.90;;;1.90;;
57726;SDS011;43568;43.180;-0.028;2022-08-19T06:45:18;2.22;;;2.13;;
57726;SDS011;43568;43.180;-0.028;2022-08-19T06:47:45;1.90;;;1.90;;
57726;SDS011;43568;43.180;-0.028;2022-08-19T06:50:13;2.50;;;2.40;;
57726;SDS011;43568;43.180;-0.028;2022-08-19T06:52:39;1.77;;;1.77;;
57726;SDS011;43568;43.180;-0.028;2022-08-19T06:55:05;1.67;;;1.67;;
57726;SDS011;43568;43.180;-0.028;2022-08-19T06:57:32;1.75;;;1.75;;
57726;SDS011;43568;43.180;-0.028;2022-08-19T06:59:58;2.03;;;1.92;;
57726;SDS011;43568;43.180;-0.028;2022-08-19T07:02:25;2.33;;;2.22;;
57726;SDS011;43568;43.180;-0.028;2022-08-19T07:04:51;2.00;;;2.00;;
57726;SDS011;43568;43.180;-0.028;2022-08-19T07:07:17;1.70;;;1.70;;
57726;SDS011;43568;43.180;-0.028;2022-08-19T07:09:44;1.80;;;1.70;;
57726;SDS011;43568;43.180;-0.028;2022-08-19T07:12:11;1.88;;;1.80;;
57726;SDS011;43568;43.180;-0.028;2022-08-19T07:14:40;1.80;;;1.80;;
57726;SDS011;43568;43.180;-0.028;2022-08-19T07:17:07;1.60;;;1.60;;
57726;SDS011;43568;43.180;-0.028;2022-08-19T07:19:33;1.70;;;1.70;;
57726;SDS011;43568;43.180;-0.028;2022-08-19T07:22:00;1.73;;;1.73;;
57726;SDS011;43568;43.180;-0.028;2022-08-19T07:24:27;1.55;;;1.55;;
57726;SDS011;43568;43.180;-0.028;2022-08-19T07:26:54;1.60;;;1.60;;
57726;SDS011;43568;43.180;-0.028;2022-08-19T07:29:22;1.67;;;1.67;;
57726;SDS011;43568;43.180;-0.028;2022-08-19T07:31:52;2.10;;;2.00;;
57726;SDS011;43568;43.180;-0.028;2022-08-19T07:34:20;1.80;;;1.80;;
57726;SDS011;43568;43.180;-0.028;2022-08-19T07:36:46;1.80;;;1.80;;
57726;SDS011;43568;43.180;-0.028;2022-08-19T07:39:17;1.90;;;1.90;;
57726;SDS011;43568;43.180;-0.028;2022-08-19T07:41:44;1.90;;;1.85;;
57726;SDS011;43568;43.180;-0.028;2022-08-19T07:44:10;2.47;;;2.35;;
57726;SDS011;43568;43.180;-0.028;2022-08-19T07:46:38;1.73;;;1.73;;
57726;SDS011;43568;43.180;-0.028;2022-08-19T07:49:05;1.60;;;1.60;;
57726;SDS011;43568;43.180;-0.028;2022-08-19T07:51:31;1.88;;;1.88;;
57726;SDS011;43568;43.180;-0.028;2022-08-19T07:53:57;1.70;;;1.70;;
57726;SDS011;43568;43.180;-0.028;2022-08-19T07:56:24;1.95;;;1.85;;
57726;SDS011;43568;43.180;-0.028;2022-08-19T07:58:50;1.65;;;1.65;;
57726;SDS011;43568;43.180;-0.028;2022-08-19T08:01:21;1.75;;;1.75;;
57726;SDS011;43568;43.180;-0.028;2022-08-19T08:03:49;1.48;;;1.48;;
57726;SDS011;43568;43.180;-0.028;2022-08-19T08:06:34;2.65;;;2.45;;
57726;SDS011;43568;43.180;-0.028;2022-08-19T08:09:21;1.70;;;1.60;;
57726;SDS011;43568;43.180;-0.028;2022-08-19T08:11:49;2.08;;;2.03;;
57726;SDS011;43568;43.180;-0.028;2022-08-19T08:14:20;1.80;;;1.70;;
57726;SDS011;43568;43.180;-0.028;2022-08-19T08:16:47;2.33;;;2.22;;
57726;SDS011;43568;43.180;-0.028;2022-08-19T08:19:16;1.70;;;1.70;;
57726;SDS011;43568;43.180;-0.028;2022-08-19T08:21:42;2.00;;;1.90;;
57726;SDS011;43568;43.180;-0.028;2022-08-19T08:24:08;1.77;;;1.67;;
57726;SDS011;43568;43.180;-0.028;2022-08-19T08:26:35;2.05;;;1.90;;
57726;SDS011;43568;43.180;-0.028;2022-08-19T08:29:01;1.50;;;1.50;;
57726;SDS011;43568;43.180;-0.028;2022-08-19T08:31:27;1.60;;;1.60;;
57726;SDS011;43568;43.180;-0.028;2022-08-19T08:33:53;1.50;;;1.50;;
57726;SDS011;43568;43.180;-0.028;2022-08-19T08:36:19;1.60;;;1.60;;
57726;SDS011;43568;43.180;-0.028;2022-08-19T08:38:45;4.20;;;2.20;;
57726;SDS011;43568;43.180;-0.028;2022-08-19T08:43:53;1.30;;;1.30;;
57726;SDS011;43568;43.180;-0.028;2022-08-19T08:48:49;1.48;;;1.48;;
57726;SDS011;43568;43.180;-0.028;2022-08-19T08:51:20;2.13;;;2.03;;
57726;SDS011;43568;43.180;-0.028;2022-08-19T08:53:48;2.60;;;2.20;;
57726;SDS011;43568;43.180;-0.028;2022-08-19T08:56:15;6.10;;;2.40;;
57726;SDS011;43568;43.180;-0.028;2022-08-19T08:58:45;1.50;;;1.50;;
57726;SDS011;43568;43.180;-0.028;2022-08-19T09:01:12;1.50;;;1.50;;
57726;SDS011;43568;43.180;-0.028;2022-08-19T09:03:41;2.25;;;2.15;;
57726;SDS011;43568;43.180;-0.028;2022-08-19T09:06:11;1.60;;;1.60;;
57726;SDS011;43568;43.180;-0.028;2022-08-19T09:08:47;1.55;;;1.55;;
57726;SDS011;43568;43.180;-0.028;2022-08-19T09:11:18;1.67;;;1.67;;
57726;SDS011;43568;43.180;-0.028;2022-08-19T09:16:26;1.40;;;1.40;;
57726;SDS011;43568;43.180;-0.028;2022-08-19T09:18:54;1.90;;;1.85;;
57726;SDS011;43568;43.180;-0.028;2022-08-19T09:21:21;1.60;;;1.60;;
57726;SDS011;43568;43.180;-0.028;2022-08-19T09:23:48;2.05;;;1.95;;
57726;SDS011;43568;43.180;-0.028;2022-08-19T09:26:15;1.50;;;1.50;;
57726;SDS011;43568;43.180;-0.028;2022-08-19T09:28:42;1.53;;;1.53;;
57726;SDS011;43568;43.180;-0.028;2022-08-19T09:31:12;1.40;;;1.40;;
57726;SDS011;43568;43.180;-0.028;2022-08-19T09:33:38;1.77;;;1.77;;
57726;SDS011;43568;43.180;-0.028;2022-08-19T09:36:06;2.10;;;2.08;;
57726;SDS011;43568;43.180;-0.028;2022-08-19T09:38:33;1.50;;;1.50;;
57726;SDS011;43568;43.180;-0.028;2022-08-19T09:41:04;1.30;;;1.30;;
57726;SDS011;43568;43.180;-0.028;2022-08-19T09:43:30;1.20;;;1.20;;
57726;SDS011;43568;43.180;-0.028;2022-08-19T09:45:56;1.30;;;1.30;;
57726;SDS011;43568;43.180;-0.028;2022-08-19T09:48:23;1.48;;;1.48;;
57726;SDS011;43568;43.180;-0.028;2022-08-19T09:50:49;1.30;;;1.30;;
57726;SDS011;43568;43.180;-0.028;2022-08-19T09:53:16;1.63;;;1.63;;
57726;SDS011;43568;43.180;-0.028;2022-08-19T09:55:42;1.42;;;1.42;;
57726;SDS011;43568;43.180;-0.028;2022-08-19T09:58:09;1.58;;;1.58;;
57726;SDS011;43568;43.180;-0.028;2022-08-19T10:00:36;1.40;;;1.40;;
57726;SDS011;43568;43.180;-0.028;2022-08-19T10:03:03;15.20;;;2.25;;
57726;SDS011;43568;43.180;-0.028;2022-08-19T10:05:29;1.65;;;1.65;;
57726;SDS011;43568;43.180;-0.028;2022-08-19T10:08:13;1.25;;;1.23;;
57726;SDS011;43568;43.180;-0.028;2022-08-19T10:10:40;1.20;;;1.20;;
57726;SDS011;43568;43.180;-0.028;2022-08-19T10:13:10;1.23;;;1.23;;
57726;SDS011;43568;43.180;-0.028;2022-08-19T10:15:36;1.50;;;1.50;;
57726;SDS011;43568;43.180;-0.028;2022-08-19T10:18:05;1.40;;;1.40;;
57726;SDS011;43568;43.180;-0.028;2022-08-19T10:20:32;1.30;;;1.30;;
57726;SDS011;43568;43.180;-0.028;2022-08-19T10:23:00;1.20;;;1.20;;
57726;SDS011;43568;43.180;-0.028;2022-08-19T10:25:26;1.30;;;1.30;;
57726;SDS011;43568;43.180;-0.028;2022-08-19T10:27:52;1.30;;;1.30;;
57726;SDS011;43568;43.180;-0.028;2022-08-19T10:30:19;1.45;;;1.40;;
57726;SDS011;43568;43.180;-0.028;2022-08-19T10:32:45;1.30;;;1.30;;
57726;SDS011;43568;43.180;-0.028;2022-08-19T10:35:11;1.40;;;1.40;;
57726;SDS011;43568;43.180;-0.028;2022-08-19T10:37:38;1.55;;;1.55;;
57726;SDS011;43568;43.180;-0.028;2022-08-19T10:40:04;1.10;;;1.10;;
57726;SDS011;43568;43.180;-0.028;2022-08-19T10:42:32;1.30;;;1.30;;
57726;SDS011;43568;43.180;-0.028;2022-08-19T10:44:58;1.20;;;1.20;;
57726;SDS011;43568;43.180;-0.028;2022-08-19T10:47:24;1.20;;;1.20;;
57726;SDS011;43568;43.180;-0.028;2022-08-19T10:49:51;1.23;;;1.23;;
57726;SDS011;43568;43.180;-0.028;2022-08-19T10:52:36;1.15;;;1.15;;
57726;SDS011;43568;43.180;-0.028;2022-08-19T10:55:05;1.30;;;1.30;;
57726;SDS011;43568;43.180;-0.028;2022-08-19T10:57:50;2.42;;;1.30;;
57726;SDS011;43568;43.180;-0.028;2022-08-19T11:00:17;1.23;;;1.23;;
57726;SDS011;43568;43.180;-0.028;2022-08-19T11:02:44;1.30;;;1.30;;
57726;SDS011;43568;43.180;-0.028;2022-08-19T11:05:11;1.10;;;1.10;;
57726;SDS011;43568;43.180;-0.028;2022-08-19T11:07:41;1.00;;;1.00;;
57726;SDS011;43568;43.180;-0.028;2022-08-19T11:10:08;1.42;;;1.42;;
57726;SDS011;43568;43.180;-0.028;2022-08-19T11:12:38;1.30;;;1.30;;
57726;SDS011;43568;43.180;-0.028;2022-08-19T11:15:05;1.10;;;1.10;;
57726;SDS011;43568;43.180;-0.028;2022-08-19T11:17:32;1.00;;;1.00;;
57726;SDS011;43568;43.180;-0.028;2022-08-19T11:19:58;1.17;;;1.17;;
57726;SDS011;43568;43.180;-0.028;2022-08-19T11:22:28;1.00;;;1.00;;
57726;SDS011;43568;43.180;-0.028;2022-08-19T11:24:54;1.10;;;1.10;;
57726;SDS011;43568;43.180;-0.028;2022-08-19T11:27:20;1.20;;;1.20;;
57726;SDS011;43568;43.180;-0.028;2022-08-19T11:29:46;1.10;;;1.10;;
57726;SDS011;43568;43.180;-0.028;2022-08-19T11:32:12;1.10;;;1.10;;
57726;SDS011;43568;43.180;-0.028;2022-08-19T11:34:40;1.20;;;1.20;;
57726;SDS011;43568;43.180;-0.028;2022-08-19T11:37:06;1.38;;;1.38;;
57726;SDS011;43568;43.180;-0.028;2022-08-19T11:39:34;1.10;;;1.10;;
57726;SDS011;43568;43.180;-0.028;2022-08-19T11:42:02;1.10;;;1.10;;
57726;SDS011;43568;43.180;-0.028;2022-08-19T11:44:49;1.10;;;1.10;;
57726;SDS011;43568;43.180;-0.028;2022-08-19T11:47:15;1.30;;;1.30;;
57726;SDS011;43568;43.180;-0.028;2022-08-19T11:49:42;1.23;;;1.23;;
57726;SDS011;43568;43.180;-0.028;2022-08-19T11:52:08;1.40;;;1.40;;
57726;SDS011;43568;43.180;-0.028;2022-08-19T11:54:34;1.25;;;1.25;;
57726;SDS011;43568;43.180;-0.028;2022-08-19T11:57:02;1.30;;;1.30;;
57726;SDS011;43568;43.180;-0.028;2022-08-19T11:59:28;1.20;;;1.20;;
57726;SDS011;43568;43.180;-0.028;2022-08-19T12:01:54;1.10;;;1.10;;
57726;SDS011;43568;43.180;-0.028;2022-08-19T12:04:20;1.10;;;1.10;;
57726;SDS011;43568;43.180;-0.028;2022-08-19T12:06:46;1.45;;;1.45;;
57726;SDS011;43568;43.180;-0.028;2022-08-19T12:09:13;1.30;;;1.30;;
57726;SDS011;43568;43.180;-0.028;2022-08-19T12:11:40;1.40;;;1.40;;
57726;SDS011;43568;43.180;-0.028;2022-08-19T12:14:06;1.17;;;1.17;;
57726;SDS011;43568;43.180;-0.028;2022-08-19T12:16:34;1.20;;;1.20;;
57726;SDS011;43568;43.180;-0.028;2022-08-19T12:19:00;1.40;;;1.40;;
57726;SDS011;43568;43.180;-0.028;2022-08-19T12:21:29;1.27;;;1.27;;
57726;SDS011;43568;43.180;-0.028;2022-08-19T12:23:56;1.13;;;1.13;;
57726;SDS011;43568;43.180;-0.028;2022-08-19T12:26:23;1.10;;;1.10;;
57726;SDS011;43568;43.180;-0.028;2022-08-19T12:28:50;1.15;;;1.15;;
57726;SDS011;43568;43.180;-0.028;2022-08-19T12:31:16;1.30;;;1.30;;
57726;SDS011;43568;43.180;-0.028;2022-08-19T12:33:43;1.00;;;1.00;;
57726;SDS011;43568;43.180;-0.028;2022-08-19T12:36:10;1.10;;;1.10;;
57726;SDS011;43568;43.180;-0.028;2022-08-19T12:38:37;1.33;;;1.33;;
57726;SDS011;43568;43.180;-0.028;2022-08-19T12:41:04;1.00;;;1.00;;
57726;SDS011;43568;43.180;-0.028;2022-08-19T12:43:32;1.05;;;1.05;;
57726;SDS011;43568;43.180;-0.028;2022-08-19T12:45:59;1.23;;;1.23;;
57726;SDS011;43568;43.180;-0.028;2022-08-19T12:48:25;1.20;;;1.20;;
57726;SDS011;43568;43.180;-0.028;2022-08-19T12:50:51;1.20;;;1.20;;
57726;SDS011;43568;43.180;-0.028;2022-08-19T12:53:19;1.20;;;1.20;;
57726;SDS011;43568;43.180;-0.028;2022-08-19T12:55:45;1.10;;;1.10;;
57726;SDS011;43568;43.180;-0.028;2022-08-19T12:58:11;1.40;;;1.40;;
57726;SDS011;43568;43.180;-0.028;2022-08-19T13:00:37;1.60;;;1.60;;
57726;SDS011;43568;43.180;-0.028;2022-08-19T13:03:03;1.20;;;1.20;;
57726;SDS011;43568;43.180;-0.028;2022-08-19T13:05:31;1.10;;;1.10;;
57726;SDS011;43568;43.180;-0.028;2022-08-19T13:08:00;1.10;;;1.10;;
57726;SDS011;43568;43.180;-0.028;2022-08-19T13:10:28;1.10;;;1.10;;
57726;SDS011;43568;43.180;-0.028;2022-08-19T13:12:55;1.00;;;1.00;;
57726;SDS011;43568;43.180;-0.028;2022-08-19T13:15:21;1.13;;;1.13;;
57726;SDS011;43568;43.180;-0.028;2022-08-19T13:17:48;1.15;;;1.15;;
57726;SDS011;43568;43.180;-0.028;2022-08-19T13:20:15;1.10;;;1.10;;
57726;SDS011;43568;43.180;-0.028;2022-08-19T13:22:41;1.20;;;1.20;;
57726;SDS011;43568;43.180;-0.028;2022-08-19T13:25:09;2.50;;;1.00;;
57726;SDS011;43568;43.180;-0.028;2022-08-19T13:27:36;1.00;;;1.00;;
57726;SDS011;43568;43.180;-0.028;2022-08-19T13:30:03;1.00;;;1.00;;
57726;SDS011;43568;43.180;-0.028;2022-08-19T13:32:48;1.00;;;1.00;;
57726;SDS011;43568;43.180;-0.028;2022-08-19T13:35:32;1.00;;;1.00;;
57726;SDS011;43568;43.180;-0.028;2022-08-19T13:37:58;0.98;;;0.98;;
57726;SDS011;43568;43.180;-0.028;2022-08-19T13:40:25;2.53;;;2.40;;
57726;SDS011;43568;43.180;-0.028;2022-08-19T13:42:53;0.90;;;0.90;;
57726;SDS011;43568;43.180;-0.028;2022-08-19T13:47:46;0.88;;;0.88;;
57726;SDS011;43568;43.180;-0.028;2022-08-19T13:50:13;0.90;;;0.90;;
57726;SDS011;43568;43.180;-0.028;2022-08-19T13:52:39;1.20;;;1.20;;
57726;SDS011;43568;43.180;-0.028;2022-08-19T13:55:06;1.00;;;1.00;;
57726;SDS011;43568;43.180;-0.028;2022-08-19T13:57:32;1.10;;;1.10;;
57726;SDS011;43568;43.180;-0.028;2022-08-19T13:59:59;1.13;;;1.13;;
57726;SDS011;43568;43.180;-0.028;2022-08-19T14:02:25;1.65;;;1.55;;
57726;SDS011;43568;43.180;-0.028;2022-08-19T14:04:51;1.10;;;1.10;;
57726;SDS011;43568;43.180;-0.028;2022-08-19T14:07:17;1.55;;;1.55;;
57726;SDS011;43568;43.180;-0.028;2022-08-19T14:09:43;1.38;;;1.35;;
57726;SDS011;43568;43.180;-0.028;2022-08-19T14:12:09;1.30;;;1.20;;
57726;SDS011;43568;43.180;-0.028;2022-08-19T14:14:38;1.42;;;1.42;;
57726;SDS011;43568;43.180;-0.028;2022-08-19T14:17:07;1.30;;;1.30;;
57726;SDS011;43568;43.180;-0.028;2022-08-19T14:19:34;1.10;;;1.10;;
57726;SDS011;43568;43.180;-0.028;2022-08-19T14:22:01;1.10;;;1.10;;
57726;SDS011;43568;43.180;-0.028;2022-08-19T14:24:27;1.10;;;1.10;;
57726;SDS011;43568;43.180;-0.028;2022-08-19T14:26:53;1.10;;;1.10;;
57726;SDS011;43568;43.180;-0.028;2022-08-19T14:29:19;1.13;;;1.13;;
57726;SDS011;43568;43.180;-0.028;2022-08-19T14:31:45;1.10;;;1.10;;
57726;SDS011;43568;43.180;-0.028;2022-08-19T14:34:11;1.13;;;1.13;;
57726;SDS011;43568;43.180;-0.028;2022-08-19T14:36:37;1.40;;;1.40;;
57726;SDS011;43568;43.180;-0.028;2022-08-19T14:39:03;1.10;;;1.10;;
57726;SDS011;43568;43.180;-0.028;2022-08-19T14:41:30;1.00;;;1.00;;
57726;SDS011;43568;43.180;-0.028;2022-08-19T14:43:56;1.00;;;1.00;;
57726;SDS011;43568;43.180;-0.028;2022-08-19T14:46:24;1.20;;;1.20;;
57726;SDS011;43568;43.180;-0.028;2022-08-19T14:48:50;1.35;;;1.33;;
57726;SDS011;43568;43.180;-0.028;2022-08-19T14:51:17;1.20;;;1.20;;
57726;SDS011;43568;43.180;-0.028;2022-08-19T14:53:44;1.40;;;1.35;;